Time;durP1;ratioP1;P1;durP2;ratioP2;P2;SDS_P1;SDS_P2;PMS_P1;PMS_P2;Temp;Humidity;BMP_temperature;BMP_pressure;BME280_temperature;BME280_humidity;BME280_pressure;Samples;Min_cycle;Max_cycle;Signal;HPM_P1;HPM_P2
2022/03/10 00:02:29;;;;;;;16.40;10.70;;;;;;;2.15;68.30;101102.40;214170;1274;140355;-74
2022/03/10 00:07:34;;;;;;;22.50;13.80;;;;;;;2.02;68.28;101108.15;214538;1274;140930;-75
2022/03/10 00:12:38;;;;;;;21.50;12.90;;;;;;;1.90;68.22;101114.03;213214;1274;141672;-73
2022/03/10 00:17:42;;;;;;;19.40;11.30;;;;;;;1.80;68.39;101127.78;213290;1274;140847;-75
2022/03/10 00:22:49;;;;;;;21.00;14.10;;;;;;;1.72;68.40;101129.27;213964;1274;142986;-77
2022/03/10 00:27:53;;;;;;;22.50;12.70;;;;;;;1.66;68.46;101135.38;213226;1274;141942;-75
2022/03/10 00:32:57;;;;;;;19.00;9.90;;;;;;;1.61;68.46;101142.88;214446;1275;140498;-74
2022/03/10 00:38:01;;;;;;;15.30;10.70;;;;;;;1.52;68.29;101148.48;215625;1274;140232;-75
2022/03/10 00:43:10;;;;;;;17.00;10.80;;;;;;;1.44;68.26;101150.79;215408;1274;141479;-74
2022/03/10 00:48:15;;;;;;;13.70;10.20;;;;;;;1.38;67.94;101157.67;215378;1274;140962;-74
2022/03/10 00:53:19;;;;;;;20.40;11.90;;;;;;;1.32;67.83;101163.79;216095;1274;140262;-74
2022/03/10 00:58:24;;;;;;;19.10;12.60;;;;;;;1.25;67.75;101174.23;214959;1274;139836;-74
2022/03/10 01:03:28;;;;;;;19.90;11.40;;;;;;;1.27;67.74;101181.80;215686;1275;140544;-74
2022/03/10 01:08:32;;;;;;;21.90;13.40;;;;;;;1.28;68.00;101185.39;215117;1274;141635;-76
2022/03/10 01:13:36;;;;;;;15.70;10.40;;;;;;;1.24;67.95;101191.64;215117;1274;140061;-74
2022/03/10 01:18:40;;;;;;;12.50;7.50;;;;;;;1.11;67.23;101199.72;214332;1274;140366;-75
2022/03/10 01:23:44;;;;;;;10.30;7.10;;;;;;;0.96;67.40;101201.16;214208;1274;141195;-74
2022/03/10 01:28:49;;;;;;;8.30;6.10;;;;;;;0.83;66.88;101210.81;214549;1274;140213;-74
2022/03/10 01:33:53;;;;;;;13.70;7.70;;;;;;;0.65;66.75;101225.63;214223;1274;140889;-74
2022/03/10 01:38:57;;;;;;;8.20;5.80;;;;;;;0.45;66.59;101237.09;213437;1274;142316;-73
2022/03/10 01:44:05;;;;;;;11.20;6.10;;;;;;;0.18;66.46;101246.66;213524;1274;142065;-70
2022/03/10 01:49:13;;;;;;;11.50;5.00;;;;;;;-0.03;66.43;101250.10;213553;1274;140479;-73
2022/03/10 01:54:18;;;;;;;8.80;5.90;;;;;;;-0.20;66.70;101255.69;214404;1274;164035;-72
2022/03/10 01:59:25;;;;;;;11.80;5.90;;;;;;;-0.34;66.73;101259.46;213386;1275;141874;-67
2022/03/10 02:04:31;;;;;;;10.20;4.50;;;;;;;-0.46;67.00;101271.64;214056;1274;140896;-74
2022/03/10 02:20:35;;;;;;;8.30;4.20;;;;;;;-0.79;67.12;101287.98;215005;1273;140735;-72
2022/03/10 02:25:41;;;;;;;13.60;7.20;;;;;;;-0.87;67.34;101284.26;213669;1274;140614;-73
2022/03/10 02:30:46;;;;;;;13.60;8.40;;;;;;;-0.94;67.39;101284.91;213536;1274;461923;-72
2022/03/10 02:35:50;;;;;;;12.80;7.90;;;;;;;-1.03;67.78;101284.00;215097;1274;142044;-72
2022/03/10 02:40:55;;;;;;;15.70;7.30;;;;;;;-1.10;67.62;101287.65;215711;1274;141235;-73
2022/03/10 02:45:59;;;;;;;11.10;7.10;;;;;;;-1.12;67.87;101291.52;215193;1274;140402;-72
2022/03/10 02:51:03;;;;;;;9.90;5.90;;;;;;;-1.17;68.03;101297.67;216032;1274;140943;-72
2022/03/10 02:56:08;;;;;;;11.10;6.30;;;;;;;-1.22;68.18;101308.08;215830;1274;140296;-69
2022/03/10 03:01:13;;;;;;;11.70;6.10;;;;;;;-1.29;68.35;101315.91;215743;1274;140725;-74
2022/03/10 03:06:19;;;;;;;8.10;5.80;;;;;;;-1.31;68.41;101325.30;215958;1274;141664;-77
2022/03/10 03:11:24;;;;;;;9.90;6.10;;;;;;;-1.34;68.47;101325.19;215585;1274;141330;-73
2022/03/10 03:16:28;;;;;;;11.30;8.50;;;;;;;-1.39;68.74;101331.65;215912;1274;140655;-74
2022/03/10 03:21:34;;;;;;;11.50;7.40;;;;;;;-1.44;68.83;101336.23;215444;1274;140623;-74
2022/03/10 03:26:39;;;;;;;12.00;7.60;;;;;;;-1.52;68.89;101345.60;213625;1274;140503;-74
2022/03/10 03:31:43;;;;;;;11.30;6.30;;;;;;;-1.58;69.09;101358.10;214543;1274;141020;-73
2022/03/10 03:36:48;;;;;;;13.60;7.90;;;;;;;-1.64;69.05;101366.55;213968;1274;142265;-74
2022/03/10 03:41:52;;;;;;;15.50;8.90;;;;;;;-1.71;69.33;101366.38;214540;1275;141575;-73
2022/03/10 03:46:56;;;;;;;15.20;7.60;;;;;;;-1.78;69.25;101373.51;214477;1274;140043;-72
2022/03/10 03:52:00;;;;;;;17.80;9.40;;;;;;;-1.82;69.54;101380.78;213776;1274;211874;-73
2022/03/10 03:57:05;;;;;;;13.30;7.80;;;;;;;-1.82;69.68;101393.17;213871;1274;143445;-72
2022/03/10 04:02:09;;;;;;;16.70;8.70;;;;;;;-1.86;69.74;101397.52;213677;1274;139946;-72
2022/03/10 04:07:15;;;;;;;15.30;9.80;;;;;;;-1.93;70.04;101410.60;214334;1274;140347;-66
2022/03/10 04:12:19;;;;;;;14.00;8.00;;;;;;;-2.02;69.90;101411.04;213381;1274;141879;-71
2022/03/10 04:17:23;;;;;;;13.00;7.70;;;;;;;-2.10;70.14;101415.30;214235;1274;140649;-72
2022/03/10 04:22:29;;;;;;;15.60;10.40;;;;;;;-2.19;70.23;101425.56;213593;1274;140215;-72
2022/03/10 04:27:33;;;;;;;17.70;10.70;;;;;;;-2.26;70.53;101426.76;214445;1274;142934;-73
2022/03/10 04:32:46;;;;;;;16.30;10.10;;;;;;;-2.33;70.69;101431.98;213607;1274;140157;-76
2022/03/10 04:37:52;;;;;;;15.90;10.30;;;;;;;-2.40;70.67;101441.67;214293;1272;140890;-73
2022/03/10 04:43:00;;;;;;;19.60;10.50;;;;;;;-2.43;70.88;101444.12;214678;1274;140640;-73
2022/03/10 04:48:06;;;;;;;25.80;10.50;;;;;;;-2.45;70.97;101443.46;213375;1274;141221;-73
2022/03/10 04:53:11;;;;;;;21.50;11.70;;;;;;;-2.48;71.04;101448.52;215119;1274;140929;-72
2022/03/10 04:58:15;;;;;;;21.80;13.30;;;;;;;-2.52;71.24;101455.43;213282;1274;140208;-73
2022/03/10 05:03:19;;;;;;;21.90;12.20;;;;;;;-2.56;71.40;101463.19;214146;1274;140796;-74
2022/03/10 05:08:24;;;;;;;20.10;10.00;;;;;;;-2.58;71.32;101469.99;215982;1274;142625;-66
2022/03/10 05:13:27;;;;;;;16.50;9.80;;;;;;;-2.59;71.33;101485.52;215697;1274;143061;-74
2022/03/10 05:18:31;;;;;;;19.10;11.40;;;;;;;-2.61;71.57;101493.66;214577;1274;141240;-72
2022/03/10 05:23:35;;;;;;;23.90;12.00;;;;;;;-2.64;71.54;101500.83;215888;1274;142184;-72
2022/03/10 05:28:40;;;;;;;20.00;11.90;;;;;;;-2.63;71.54;101510.70;215240;1273;142691;-72
2022/03/10 05:33:44;;;;;;;25.30;13.10;;;;;;;-2.58;71.55;101520.13;214898;1274;141919;-72
2022/03/10 05:38:48;;;;;;;29.40;14.40;;;;;;;-2.56;71.61;101526.93;214405;1274;165414;-71
2022/03/10 05:43:57;;;;;;;27.70;15.60;;;;;;;-2.56;71.58;101535.27;214562;1274;141529;-75
2022/03/10 05:49:01;;;;;;;17.70;11.20;;;;;;;-2.57;71.74;101541.77;214010;1274;140832;-64
2022/03/10 05:54:05;;;;;;;24.60;12.70;;;;;;;-2.54;71.61;101545.56;213694;1274;141686;-71
2022/03/10 05:59:09;;;;;;;22.70;11.40;;;;;;;-2.49;71.62;101557.45;214513;1274;141086;-74
2022/03/10 06:04:12;;;;;;;27.80;12.10;;;;;;;-2.44;71.65;101564.04;214405;1274;154511;-72
2022/03/10 06:09:15;;;;;;;25.30;13.80;;;;;;;-2.38;71.57;101569.18;213417;1274;141131;-73
2022/03/10 06:14:18;;;;;;;20.50;11.50;;;;;;;-2.33;71.76;101576.34;212867;1274;140141;-73
2022/03/10 06:19:22;;;;;;;18.40;11.00;;;;;;;-2.26;71.39;101588.42;213580;1274;142239;-72
2022/03/10 06:24:26;;;;;;;16.40;10.70;;;;;;;-2.20;71.33;101595.10;213144;1274;141852;-75
2022/03/10 06:29:30;;;;;;;10.80;7.90;;;;;;;-2.10;71.34;101603.60;213552;1274;143275;-68
2022/03/10 06:34:34;;;;;;;15.50;8.60;;;;;;;-2.06;70.91;101609.23;213658;1274;141068;-77
2022/03/10 06:39:38;;;;;;;10.90;7.90;;;;;;;-2.04;70.52;101605.64;213794;1274;141054;-73
2022/03/10 06:44:42;;;;;;;16.80;9.30;;;;;;;-1.99;70.48;101610.69;215131;1274;139993;-76
2022/03/10 06:49:45;;;;;;;14.30;9.30;;;;;;;-1.88;69.93;101611.48;214458;1274;140879;-73
2022/03/10 06:54:52;;;;;;;14.80;7.60;;;;;;;-1.76;69.33;101617.55;214275;1274;143043;-75
2022/03/10 06:59:56;;;;;;;11.30;7.60;;;;;;;-1.44;68.90;101618.60;215483;1274;141330;-78
2022/03/10 07:05:00;;;;;;;12.70;9.20;;;;;;;-1.00;68.08;101622.63;215356;1274;139807;-71
2022/03/10 07:10:05;;;;;;;10.00;5.90;;;;;;;-0.64;67.75;101625.35;214545;1274;141031;-75
2022/03/10 07:15:14;;;;;;;13.30;6.70;;;;;;;0.42;66.59;101623.81;216036;1273;140679;-72
2022/03/10 07:20:20;;;;;;;17.50;6.20;;;;;;;1.90;65.63;101629.80;215965;1274;139999;-76
2022/03/10 07:25:25;;;;;;;9.80;6.30;;;;;;;3.36;63.16;101634.36;215186;1274;140447;-74
2022/03/10 07:30:31;;;;;;;10.90;6.20;;;;;;;4.47;61.29;101633.66;215369;1274;140223;-75
2022/03/10 07:35:35;;;;;;;9.90;4.90;;;;;;;5.65;60.00;101632.13;214935;1274;140115;-75
2022/03/10 07:40:39;;;;;;;11.40;4.90;;;;;;;6.24;56.47;101637.30;214539;1274;140841;-73
2022/03/10 07:45:49;;;;;;;8.20;5.60;;;;;;;6.55;56.03;101643.60;215074;1274;140065;-77
2022/03/10 07:50:53;;;;;;;12.20;7.70;;;;;;;6.52;54.84;101648.62;214508;1274;140262;-75
2022/03/10 07:55:57;;;;;;;8.80;6.00;;;;;;;6.40;54.37;101654.51;215098;1274;140192;-77
2022/03/10 08:01:03;;;;;;;12.70;5.60;;;;;;;5.95;53.91;101659.98;213468;1274;139927;-77
2022/03/10 08:06:08;;;;;;;6.70;4.60;;;;;;;5.55;53.41;101662.06;214029;1274;141376;-77
2022/03/10 08:11:13;;;;;;;9.70;4.80;;;;;;;5.18;52.41;101663.48;213140;1274;140445;-78
2022/03/10 08:16:17;;;;;;;9.60;5.30;;;;;;;4.90;52.23;101668.36;214877;1274;140801;-68
2022/03/10 08:21:23;;;;;;;9.60;5.20;;;;;;;4.68;52.09;101667.92;214515;1274;141219;-80
2022/03/10 08:26:27;;;;;;;9.10;5.30;;;;;;;4.47;51.83;101668.44;213390;1274;140439;-80
2022/03/10 08:31:31;;;;;;;5.80;4.20;;;;;;;4.26;51.47;101666.38;213087;1274;142314;-76
2022/03/10 08:36:36;;;;;;;23.50;10.60;;;;;;;4.07;51.25;101665.91;213940;1274;140854;-78
2022/03/10 08:41:39;;;;;;;7.00;4.80;;;;;;;3.87;50.99;101663.38;214452;1274;140654;-76
2022/03/10 08:46:46;;;;;;;10.40;6.20;;;;;;;3.60;50.44;101665.17;214477;1274;140178;-76
2022/03/10 08:51:51;;;;;;;16.20;11.00;;;;;;;3.57;50.93;101665.48;213946;1274;141458;-73
2022/03/10 08:56:56;;;;;;;18.60;9.50;;;;;;;3.43;49.95;101660.59;213703;1272;140705;-75
2022/03/10 09:02:01;;;;;;;12.70;6.40;;;;;;;3.14;49.81;101659.98;215646;1274;140018;-74
2022/03/10 09:07:07;;;;;;;13.30;7.80;;;;;;;3.07;49.61;101664.48;215103;1274;140910;-72
2022/03/10 09:12:12;;;;;;;13.60;9.90;;;;;;;3.11;50.05;101663.80;214261;1274;140548;-71
2022/03/10 09:17:16;;;;;;;15.90;10.80;;;;;;;3.20;49.86;101670.02;215647;1274;140461;-72
2022/03/10 09:22:23;;;;;;;7.00;5.00;;;;;;;3.24;49.85;101672.31;215873;1274;140512;-72
2022/03/10 09:27:28;;;;;;;4.50;3.90;;;;;;;3.37;49.43;101668.40;215852;1274;139972;-71
2022/03/10 09:32:38;;;;;;;9.70;4.70;;;;;;;3.47;49.36;101672.40;216049;1274;140201;-77
2022/03/10 09:37:42;;;;;;;10.70;5.70;;;;;;;3.68;49.51;101669.90;215995;1274;140025;-75
2022/03/10 09:42:49;;;;;;;8.80;5.60;;;;;;;3.87;48.84;101666.23;213949;1274;140323;-77
2022/03/10 09:47:53;;;;;;;10.00;6.70;;;;;;;3.87;48.06;101666.59;214862;1274;142058;-74
2022/03/10 09:52:58;;;;;;;10.70;6.20;;;;;;;3.91;48.14;101668.25;215514;1273;140752;-71
2022/03/10 09:58:03;;;;;;;12.40;6.60;;;;;;;3.88;47.98;101672.63;214980;1274;140533;-74
2022/03/10 10:03:08;;;;;;;9.10;4.40;;;;;;;3.99;48.12;101673.36;214371;1274;139870;-75
2022/03/10 10:08:17;;;;;;;8.70;4.70;;;;;;;4.13;47.91;101675.89;214329;1274;139756;-73
2022/03/10 10:13:34;;;;;;;6.30;3.90;;;;;;;4.04;47.03;101670.23;214044;1275;140382;-76
2022/03/10 10:18:40;;;;;;;5.30;4.30;;;;;;;3.93;47.14;101673.75;213225;1275;139571;-67
2022/03/10 10:23:53;;;;;;;11.70;6.40;;;;;;;3.88;47.03;101677.88;213534;1274;140230;-70
2022/03/10 10:29:02;;;;;;;9.80;6.70;;;;;;;3.69;46.45;101679.70;213757;1275;140615;-73
2022/03/10 10:34:10;;;;;;;12.50;6.50;;;;;;;3.60;46.74;101683.70;213169;1274;139727;-73
2022/03/10 10:39:17;;;;;;;7.20;4.80;;;;;;;3.62;46.69;101687.39;213961;1274;140269;-75
2022/03/10 10:44:23;;;;;;;6.80;4.40;;;;;;;3.54;46.27;101689.72;213995;1274;141123;-75
2022/03/10 10:49:35;;;;;;;9.30;4.70;;;;;;;3.56;46.25;101692.89;213134;1274;141468;-77
2022/03/10 10:54:41;;;;;;;7.30;4.70;;;;;;;3.76;46.59;101692.58;214185;1274;139687;-76
2022/03/10 10:59:46;;;;;;;16.50;7.60;;;;;;;3.78;45.82;101690.60;213849;1274;139939;-76
2022/03/10 11:04:52;;;;;;;7.70;5.00;;;;;;;3.67;46.22;101699.86;214398;1274;141541;-78
2022/03/10 11:09:57;;;;;;;5.00;3.20;;;;;;;3.80;46.02;101699.44;214635;1275;140287;-80
2022/03/10 11:15:02;;;;;;;7.40;4.70;;;;;;;3.83;45.57;101705.10;214545;1273;139922;-71
2022/03/10 11:20:09;;;;;;;7.10;4.40;;;;;;;3.69;44.94;101698.29;215276;1274;141215;-71
2022/03/10 11:25:30;;;;;;;9.50;7.90;;;;;;;3.58;45.14;101706.15;214450;1276;139410;-71
2022/03/10 11:30:36;;;;;;;11.70;5.80;;;;;;;3.65;44.87;101696.55;215728;1277;141498;-74
2022/03/10 11:35:47;;;;;;;7.10;3.80;;;;;;;3.75;44.78;101692.28;214852;1276;140193;-74
2022/03/10 11:40:56;;;;;;;11.70;5.90;;;;;;;3.79;44.57;101692.46;214989;1276;139479;-80
2022/03/10 11:46:21;;;;;;;10.40;4.80;;;;;;;3.83;44.43;101694.02;215544;1276;140170;-75
2022/03/10 11:51:46;;;;;;;7.50;5.10;;;;;;;3.87;44.12;101691.02;213404;1276;142306;-79
2022/03/10 11:56:51;;;;;;;6.20;3.20;;;;;;;3.83;43.92;101678.58;214919;1276;139572;-72
2022/03/10 12:01:56;;;;;;;8.00;4.20;;;;;;;3.84;43.98;101678.44;214831;1276;139546;-72
2022/03/10 12:07:02;;;;;;;8.80;6.60;;;;;;;3.81;43.91;101681.02;214040;1276;139829;-70
2022/03/10 12:12:17;;;;;;;5.40;4.60;;;;;;;3.84;43.92;101682.52;213985;1276;139995;-73
2022/03/10 12:17:43;;;;;;;4.90;4.30;;;;;;;3.89;43.76;101679.59;213429;1276;140381;-71
2022/03/10 12:23:03;;;;;;;6.50;4.40;;;;;;;3.92;43.25;101676.25;213266;1274;140579;-76
2022/03/10 12:28:09;;;;;;;7.00;4.40;;;;;;;3.86;42.95;101675.10;213345;1274;142285;-77
2022/03/10 12:33:14;;;;;;;11.60;4.70;;;;;;;3.84;43.19;101675.16;213518;1275;139250;-71
2022/03/10 12:38:36;;;;;;;6.10;3.70;;;;;;;3.83;42.98;101675.02;214407;1274;140609;-72
2022/03/10 12:43:41;;;;;;;8.50;3.90;;;;;;;3.75;42.53;101678.03;215038;1274;140762;-77
2022/03/10 12:48:57;;;;;;;6.40;3.60;;;;;;;3.83;42.76;101673.44;213349;1276;139334;-77
2022/03/10 12:54:07;;;;;;;5.80;3.00;;;;;;;3.83;42.55;101677.49;213356;1274;139410;-72
2022/03/10 12:59:12;;;;;;;10.40;4.10;;;;;;;3.82;41.89;101671.95;214874;1274;140002;-75
2022/03/10 13:04:17;;;;;;;13.10;5.90;;;;;;;3.81;42.16;101673.48;213364;1274;162511;-77
2022/03/10 13:09:23;;;;;;;9.10;4.50;;;;;;;3.80;42.02;101672.64;214708;1274;140175;-75
2022/03/10 13:14:29;;;;;;;7.60;4.80;;;;;;;3.71;41.64;101673.45;213948;1274;139669;-78
2022/03/10 13:19:37;;;;;;;4.80;3.70;;;;;;;3.73;41.91;101674.90;214159;1274;139550;-75
2022/03/10 13:24:43;;;;;;;6.60;4.50;;;;;;;3.79;41.86;101670.66;214641;1274;140511;-76
2022/03/10 13:29:51;;;;;;;7.10;4.00;;;;;;;3.80;41.53;101669.56;214375;1274;139805;-75
2022/03/10 13:35:00;;;;;;;6.50;4.10;;;;;;;3.72;41.02;101678.16;215173;1274;141648;-74
2022/03/10 13:40:06;;;;;;;10.70;4.60;;;;;;;3.65;41.41;101670.55;215664;1274;140517;-73
2022/03/10 13:45:13;;;;;;;5.40;3.60;;;;;;;3.67;41.13;101665.79;213545;1274;139829;-72
2022/03/10 13:50:26;;;;;;;7.70;5.80;;;;;;;3.65;40.64;101666.73;215199;1274;142193;-74
2022/03/10 13:55:32;;;;;;;8.90;4.40;;;;;;;3.63;40.97;101660.90;216128;1274;139869;-72
2022/03/10 14:00:41;;;;;;;7.20;4.90;;;;;;;3.63;40.61;101658.81;215055;1274;140220;-73
2022/03/10 14:05:47;;;;;;;6.30;3.50;;;;;;;3.54;40.60;101662.27;215577;1274;140298;-67
2022/03/10 14:10:58;;;;;;;5.80;4.10;;;;;;;3.43;40.46;101657.12;213253;1274;139700;-70
2022/03/10 14:16:04;;;;;;;7.70;4.60;;;;;;;3.37;40.51;101656.45;213132;1274;139241;-68
2022/03/10 14:21:11;;;;;;;6.30;4.30;;;;;;;3.33;40.36;101658.20;214626;1274;140582;-72
2022/03/10 14:26:17;;;;;;;9.00;4.80;;;;;;;3.30;40.36;101654.63;214381;1274;139285;-71
2022/03/10 14:31:24;;;;;;;9.60;5.90;;;;;;;3.28;40.36;101649.92;213633;1274;573030;-73
2022/03/10 14:36:30;;;;;;;7.30;4.70;;;;;;;3.29;40.24;101646.11;214921;1274;140118;-75
2022/03/10 14:41:35;;;;;;;8.20;5.50;;;;;;;3.21;40.06;101646.69;213256;1274;142692;-75
2022/03/10 14:46:40;;;;;;;9.20;6.30;;;;;;;3.14;40.28;101649.80;213863;1274;140796;-75
2022/03/10 14:51:45;;;;;;;7.80;4.20;;;;;;;3.06;40.25;101644.18;213488;1274;141627;-72
2022/03/10 14:56:54;;;;;;;6.90;4.40;;;;;;;2.96;40.44;101641.61;214790;1274;141154;-72
2022/03/10 15:02:00;;;;;;;6.90;4.30;;;;;;;2.94;40.80;101646.38;213891;1276;139171;-70
2022/03/10 15:07:05;;;;;;;7.40;5.00;;;;;;;2.88;40.84;101648.78;213820;1276;141103;-74
2022/03/10 15:12:15;;;;;;;9.80;5.00;;;;;;;2.83;41.04;101647.86;213584;1274;141649;-75
2022/03/10 15:17:27;;;;;;;9.50;4.40;;;;;;;2.74;40.84;101652.05;213401;1274;141404;-72
2022/03/10 15:22:32;;;;;;;12.30;6.60;;;;;;;2.61;40.80;101650.40;214503;1274;141748;-69
2022/03/10 15:27:36;;;;;;;17.70;7.80;;;;;;;2.49;40.81;101654.95;214670;1274;139995;-73
2022/03/10 15:32:40;;;;;;;5.90;4.50;;;;;;;2.38;41.14;101656.11;214493;1274;141568;-74
2022/03/10 15:37:46;;;;;;;11.00;5.50;;;;;;;2.29;41.44;101656.23;215569;1274;140284;-77
2022/03/10 15:42:51;;;;;;;12.90;5.70;;;;;;;2.22;41.14;101656.48;214793;1274;139605;-75
2022/03/10 15:47:56;;;;;;;8.00;5.20;;;;;;;2.12;41.13;101657.75;215001;1274;139938;-76
2022/03/10 15:53:00;;;;;;;13.10;6.30;;;;;;;2.00;40.98;101663.49;215863;1274;140620;-74
2022/03/10 15:58:11;;;;;;;;;;;;;;;1.89;41.54;101663.56;215757;1274;143273;-75
2022/03/10 16:03:15;;;;;;;13.00;6.90;;;;;;;1.75;41.82;101661.66;214940;1274;126265;-71
2022/03/10 16:08:19;;;;;;;22.70;10.30;;;;;;;1.66;42.35;101668.14;215515;1274;141335;-74
2022/03/10 16:13:27;;;;;;;18.90;8.00;;;;;;;1.57;42.68;101673.64;214808;1274;141571;-72
2022/03/10 16:18:31;;;;;;;10.90;6.10;;;;;;;1.44;42.48;101678.46;214347;1274;141374;-68
2022/03/10 16:23:36;;;;;;;27.90;12.50;;;;;;;1.30;42.18;101680.50;213481;1274;141117;-72
2022/03/10 16:28:42;;;;;;;23.90;10.60;;;;;;;1.17;42.55;101684.93;215590;1274;140676;-75
2022/03/10 16:33:47;;;;;;;11.10;6.70;;;;;;;1.03;43.47;101687.96;214706;1274;141882;-74
2022/03/10 16:38:52;;;;;;;13.10;6.10;;;;;;;0.91;43.88;101689.68;215216;1274;140038;-74
2022/03/10 16:44:03;;;;;;;13.20;6.20;;;;;;;0.75;43.77;101699.84;215143;1274;140168;-76
2022/03/10 16:49:09;;;;;;;19.20;10.00;;;;;;;0.62;44.28;101706.55;213526;1275;141364;-73
2022/03/10 16:54:14;;;;;;;19.70;8.00;;;;;;;0.47;45.02;101710.04;214014;1274;142605;-71
2022/03/10 16:59:18;;;;;;;15.90;9.30;;;;;;;0.32;45.51;101713.31;213428;1274;140445;-73
2022/03/10 17:04:23;;;;;;;17.90;8.20;;;;;;;0.16;45.68;101716.99;213887;1274;140671;-68
2022/03/10 17:09:29;;;;;;;12.70;7.80;;;;;;;-0.01;46.03;101722.66;214005;1275;141241;-70
2022/03/10 17:14:33;;;;;;;20.70;8.70;;;;;;;-0.14;46.82;101724.41;212985;1275;141384;-68
2022/03/10 17:19:38;;;;;;;27.00;11.20;;;;;;;-0.30;47.28;101724.71;212846;1274;139768;-74
2022/03/10 17:24:43;;;;;;;28.20;12.00;;;;;;;-0.44;47.54;101727.90;215062;1274;140575;-69
2022/03/10 17:29:47;;;;;;;18.60;10.60;;;;;;;-0.57;48.21;101725.39;213705;1275;141907;-73
2022/03/10 17:34:52;;;;;;;17.80;8.90;;;;;;;-0.68;48.39;101730.55;214282;1276;141216;-70
2022/03/10 17:39:57;;;;;;;21.50;11.80;;;;;;;-0.78;49.17;101732.13;213593;1274;141116;-74
2022/03/10 17:45:01;;;;;;;15.40;9.20;;;;;;;-0.91;49.76;101732.95;215076;1275;142336;-72
2022/03/10 17:50:11;;;;;;;15.60;8.40;;;;;;;-1.05;50.28;101736.39;214623;1276;140240;-69
2022/03/10 17:55:15;;;;;;;16.30;8.20;;;;;;;-1.20;50.70;101739.41;214887;1274;139798;-69
2022/03/10 18:00:19;;;;;;;14.90;9.10;;;;;;;-1.31;51.35;101738.66;215971;1274;139832;-69
2022/03/10 18:05:25;;;;;;;26.50;13.20;;;;;;;-1.39;51.22;101747.40;215810;1274;141033;-71
2022/03/10 18:10:31;;;;;;;20.10;12.00;;;;;;;-1.41;51.22;101752.11;214330;1274;141585;-70
2022/03/10 18:15:35;;;;;;;29.30;13.40;;;;;;;-1.46;51.08;101757.88;215999;1274;140697;-73
2022/03/10 18:20:44;;;;;;;31.90;13.10;;;;;;;-1.51;51.15;101756.79;215178;1274;140556;-74
2022/03/10 18:25:49;;;;;;;21.50;10.40;;;;;;;-1.54;50.93;101758.06;215163;1274;140764;-72
2022/03/10 18:30:54;;;;;;;22.90;11.10;;;;;;;-1.60;50.81;101757.51;215292;1274;140648;-75
2022/03/10 18:35:58;;;;;;;30.80;11.90;;;;;;;-1.69;51.51;101761.43;214139;1274;140869;-75
2022/03/10 18:41:06;;;;;;;34.90;14.80;;;;;;;-1.82;52.10;101760.73;214059;1274;140240;-74
2022/03/10 18:46:12;;;;;;;25.40;13.20;;;;;;;-1.88;51.91;101767.08;214611;1274;140787;-74
2022/03/10 18:51:16;;;;;;;47.90;19.50;;;;;;;-1.95;51.91;101773.34;214040;1274;139929;-74
2022/03/10 18:56:33;;;;;;;62.10;23.50;;;;;;;-2.02;51.82;101774.11;213203;1274;141142;-67
2022/03/10 19:01:37;;;;;;;54.30;22.00;;;;;;;-2.09;52.18;101776.17;213576;1274;141132;-74
2022/03/10 19:06:42;;;;;;;34.30;18.20;;;;;;;-2.17;52.40;101777.06;213730;1274;140290;-74
2022/03/10 19:11:50;;;;;;;40.90;16.00;;;;;;;-2.23;52.55;101775.91;214039;1274;140313;-74
2022/03/10 19:16:56;;;;;;;25.60;15.30;;;;;;;-2.31;52.73;101779.04;213694;1274;140587;-70
2022/03/10 19:22:00;;;;;;;35.80;16.50;;;;;;;-2.42;52.87;101784.64;213913;1274;141245;-74
2022/03/10 19:27:05;;;;;;;35.10;15.00;;;;;;;-2.55;52.98;101784.82;213512;1276;140482;-75
2022/03/10 19:32:08;;;;;;;37.70;18.30;;;;;;;-2.66;52.93;101780.67;213635;1276;142188;-75
2022/03/10 19:37:12;;;;;;;46.90;21.00;;;;;;;-2.72;53.07;101784.70;213501;1276;141041;-75
2022/03/10 19:42:16;;;;;;;42.50;16.90;;;;;;;-2.75;53.40;101780.90;214022;1276;162207;-74
2022/03/10 19:47:21;;;;;;;29.60;15.20;;;;;;;-2.77;53.51;101785.06;214176;1274;141177;-74
2022/03/10 19:52:25;;;;;;;31.60;14.90;;;;;;;-2.81;53.79;101785.80;213090;1274;140555;-73
2022/03/10 19:57:34;;;;;;;45.00;21.90;;;;;;;-2.86;54.32;101792.74;214521;1274;141000;-74
2022/03/10 20:02:40;;;;;;;50.10;22.30;;;;;;;-2.88;54.40;101794.80;213819;1274;140443;-71
2022/03/10 20:07:44;;;;;;;48.00;18.70;;;;;;;-2.87;54.23;101797.50;214540;1274;141254;-72
2022/03/10 20:12:48;;;;;;;50.80;20.70;;;;;;;-2.87;54.39;101800.48;215983;1274;140756;-75
2022/03/10 20:17:52;;;;;;;41.70;18.10;;;;;;;-2.91;54.75;101801.40;213740;1275;142151;-75
2022/03/10 20:22:56;;;;;;;31.50;15.30;;;;;;;-2.99;54.61;101803.86;215994;1274;141084;-75
2022/03/10 20:28:00;;;;;;;21.30;11.70;;;;;;;-3.02;54.58;101806.81;215771;1274;151747;-75
2022/03/10 20:33:05;;;;;;;26.20;11.10;;;;;;;-3.02;54.45;101805.23;214832;1274;143294;-74
2022/03/10 20:38:09;;;;;;;28.50;13.20;;;;;;;-3.01;54.26;101809.52;213616;1274;141262;-75
2022/03/10 20:43:14;;;;;;;22.90;12.00;;;;;;;-3.00;54.35;101811.77;214688;1274;142033;-75
2022/03/10 20:48:17;;;;;;;21.30;11.70;;;;;;;-3.01;54.25;101818.90;214385;1276;140833;-74
2022/03/10 20:53:21;;;;;;;24.00;11.20;;;;;;;-3.01;54.12;101822.45;214164;1276;140474;-66
2022/03/10 20:58:26;;;;;;;20.50;9.40;;;;;;;-3.04;54.00;101823.95;214551;1274;142015;-73
2022/03/10 21:03:30;;;;;;;18.10;9.30;;;;;;;-3.06;54.26;101826.36;214307;1274;139888;-73
2022/03/10 21:08:35;;;;;;;20.30;9.90;;;;;;;-3.09;54.36;101824.16;213278;1274;139947;-71
2022/03/10 21:13:43;;;;;;;28.70;12.50;;;;;;;-3.15;54.22;101818.95;213763;1274;140061;-73
2022/03/10 21:18:51;;;;;;;26.50;12.80;;;;;;;-3.21;54.37;101817.22;213776;1274;140080;-73
2022/03/10 21:23:57;;;;;;;25.60;13.20;;;;;;;-3.26;54.41;101817.38;214294;1274;142249;-73
2022/03/10 21:29:03;;;;;;;25.60;12.70;;;;;;;-3.35;54.46;101821.77;214102;1274;143461;-69
2022/03/10 21:34:07;;;;;;;29.40;12.20;;;;;;;-3.45;54.57;101824.11;214134;1274;141822;-72
2022/03/10 21:39:11;;;;;;;13.20;7.90;;;;;;;-3.51;54.54;101822.55;214717;1276;141696;-73
2022/03/10 21:44:14;;;;;;;28.20;10.10;;;;;;;-3.53;54.32;101826.01;214338;1274;141776;-72
2022/03/10 21:49:19;;;;;;;18.90;10.00;;;;;;;-3.56;54.54;101827.06;214417;1274;140758;-74
2022/03/10 21:54:24;;;;;;;13.20;7.80;;;;;;;-3.61;54.40;101821.63;214784;1274;141749;-73
2022/03/10 21:59:30;;;;;;;18.10;7.80;;;;;;;-3.64;54.28;101821.46;214747;1276;141820;-73
2022/03/10 22:04:34;;;;;;;16.90;8.10;;;;;;;-3.65;54.04;101824.46;214802;1274;140351;-71
2022/03/10 22:09:39;;;;;;;10.20;7.50;;;;;;;-3.66;53.96;101818.79;214939;1274;140018;-72
2022/03/10 22:14:43;;;;;;;20.40;6.90;;;;;;;-3.67;53.99;101819.21;215649;1276;140709;-72
2022/03/10 22:19:48;;;;;;;15.60;8.00;;;;;;;-3.69;53.99;101822.48;215979;1274;140614;-72
2022/03/10 22:24:54;;;;;;;13.90;6.50;;;;;;;-3.69;53.82;101822.13;215106;1274;139849;-72
2022/03/10 22:29:58;;;;;;;14.90;7.70;;;;;;;-3.72;53.83;101819.85;215417;1274;140708;-74
2022/03/10 22:35:02;;;;;;;11.40;5.60;;;;;;;-3.76;53.84;101816.77;215194;1274;141048;-73
2022/03/10 22:40:07;;;;;;;15.40;7.60;;;;;;;-3.78;53.79;101816.21;214419;1274;140449;-71
2022/03/10 22:45:13;;;;;;;16.90;8.80;;;;;;;-3.81;53.78;101813.23;214778;1274;141070;-73
2022/03/10 22:55:42;;;;;;;7.60;5.00;;;;;;;-3.88;53.89;101813.13;214527;1273;141089;-72
2022/03/10 23:00:47;;;;;;;11.90;6.20;;;;;;;-3.92;53.77;101809.94;214521;1274;141715;-72
2022/03/10 23:11:16;;;;;;;19.40;8.70;;;;;;;-4.05;53.94;101811.20;213980;1274;141665;-73
2022/03/10 23:16:20;;;;;;;19.50;8.10;;;;;;;-4.13;54.16;101809.25;213877;1274;141017;-73
2022/03/10 23:21:25;;;;;;;12.90;6.10;;;;;;;-4.18;54.22;101807.98;213877;1274;141613;-73